Time;durP1;ratioP1;P1;durP2;ratioP2;P2;SDS_P1;SDS_P2;PMS_P1;PMS_P2;Temp;Humidity;BMP_temperature;BMP_pressure;BME280_temperature;BME280_humidity;BME280_pressure;Samples;Min_cycle;Max_cycle;Signal;HPM_P1;HPM_P2
2020/12/28 00:00:10;;;;;;;22.67;11.57;;;0.20;99.90;;;;;;4926801;28;20643;-92
2020/12/28 00:02:36;;;;;;;20.27;11.03;;;0.30;99.90;;;;;;4958621;28;20186;-92
2020/12/28 00:05:06;;;;;;;21.03;10.90;;;0.30;99.90;;;;;;4942404;28;20226;-92
2020/12/28 00:07:31;;;;;;;20.43;11.13;;;1.20;99.90;;;;;;4958367;28;20179;-92
2020/12/28 00:09:57;;;;;;;22.53;11.53;;;2.60;99.90;;;;;;4942029;28;20721;-91
2020/12/28 00:12:27;;;;;;;17.93;10.33;;;2.80;99.90;;;;;;4958420;28;20182;-91
2020/12/28 00:14:53;;;;;;;22.03;12.23;;;;;;;;;;4942400;28;20186;-93
2020/12/28 00:17:19;;;;;;;23.20;13.00;;;0.50;99.90;;;;;;4958507;28;20193;-92
2020/12/28 00:19:44;;;;;;;19.10;10.70;;;2.10;99.90;;;;;;4958219;28;20178;-91
2020/12/28 00:22:10;;;;;;;20.50;11.67;;;0.80;99.90;;;;;;4930405;28;20179;-89
2020/12/28 00:24:35;;;;;;;23.67;10.67;;;0.80;99.90;;;;;;4950712;28;20194;-89
2020/12/28 00:27:02;;;;;;;21.80;10.50;;;;;;;;;;4963856;28;20643;-89
2020/12/28 00:29:27;;;;;;;19.87;10.40;;;0.50;99.90;;;;;;4975823;28;20202;-92
2020/12/28 00:31:53;;;;;;;17.80;10.23;;;2.00;99.90;;;;;;4957826;28;20638;-92
2020/12/28 00:34:19;;;;;;;20.20;11.90;;;;;;;;;;4957731;28;20673;-91
2020/12/28 00:36:45;;;;;;;21.00;11.03;;;;;;;;;;4942038;28;20206;-91
2020/12/28 00:39:11;;;;;;;18.40;10.43;;;0.50;99.90;;;;;;4957851;28;20217;-91
2020/12/28 00:41:37;;;;;;;38.87;21.90;;;2.40;99.90;;;;;;4926106;28;20188;-91
2020/12/28 00:44:02;;;;;;;29.87;16.33;;;1.80;99.90;;;;;;4925884;28;20220;-91
2020/12/28 00:46:28;;;;;;;20.17;11.13;;;0.70;99.90;;;;;;4941606;28;20217;-91
2020/12/28 00:48:54;;;;;;;22.90;11.50;;;0.60;99.90;;;;;;4957042;28;20276;-93
2020/12/28 00:51:20;;;;;;;20.73;10.33;;;;;;;;;;4957455;28;20662;-92
2020/12/28 00:53:47;;;;;;;17.73;10.20;;;;;;;;;;4974613;28;20185;-92
2020/12/28 00:56:13;;;;;;;20.53;9.87;;;0.60;99.90;;;;;;4957594;28;20694;-92
2020/12/28 00:58:39;;;;;;;19.40;10.57;;;2.90;99.90;;;;;;4973653;28;20214;-91
2020/12/28 01:01:05;;;;;;;17.23;10.10;;;0.70;99.90;;;;;;4957514;28;20597;-93
2020/12/28 01:03:31;;;;;;;17.63;9.97;;;;;;;;;;4941519;28;20190;-93
2020/12/28 01:05:57;;;;;;;16.23;9.37;;;;;;;;;;4974099;28;20234;-92
2020/12/28 01:08:23;;;;;;;19.50;10.50;;;0.70;99.90;;;;;;4973481;28;20289;-93
2020/12/28 01:10:49;;;;;;;18.37;9.63;;;2.80;99.90;;;;;;4957084;28;20775;-92
2020/12/28 01:13:15;;;;;;;16.67;8.90;;;2.80;99.90;;;;;;4973500;28;20233;-92
2020/12/28 01:15:42;;;;;;;18.13;10.73;;;0.90;99.90;;;;;;4974130;28;20206;-90
2020/12/28 01:18:08;;;;;;;17.63;9.20;;;1.30;99.90;;;;;;4974506;28;20709;-92
2020/12/28 01:20:33;;;;;;;14.90;9.00;;;3.40;99.90;;;;;;4957569;28;20191;-93
2020/12/28 01:23:00;;;;;;;17.10;9.33;;;3.50;99.90;;;;;;4925314;28;20538;-91
2020/12/28 01:25:27;;;;;;;20.07;9.90;;;;;;;;;;4957428;28;20202;-93
2020/12/28 01:27:53;;;;;;;17.40;9.53;;;;;;;;;;4972975;28;20191;-92
2020/12/28 01:30:19;;;;;;;19.13;10.07;;;;;;;;;;4957264;28;20215;-92
2020/12/28 01:32:44;;;;;;;17.87;9.83;;;0.90;99.90;;;;;;4940758;28;20655;-92
2020/12/28 01:35:10;;;;;;;17.63;9.73;;;2.60;99.90;;;;;;4940841;28;20199;-92
2020/12/28 01:37:35;;;;;;;22.57;10.27;;;1.80;99.90;;;;;;4956853;28;20183;-92
2020/12/28 01:40:01;;;;;;;19.57;10.43;;;1.80;99.90;;;;;;4973915;28;20285;-92
2020/12/28 01:42:27;;;;;;;16.50;10.10;;;1.00;99.90;;;;;;4956983;28;20213;-92
2020/12/28 01:44:53;;;;;;;20.23;9.33;;;2.20;99.90;;;;;;4956529;28;20222;-92
2020/12/28 01:47:18;;;;;;;15.47;9.00;;;2.70;99.90;;;;;;4940793;28;20322;-92
2020/12/28 01:49:44;;;;;;;17.80;9.57;;;2.10;99.90;;;;;;4956551;28;20641;-92
2020/12/28 01:52:10;;;;;;;16.30;9.30;;;2.40;99.90;;;;;;4956981;28;20553;-91
2020/12/28 01:54:36;;;;;;;21.93;9.90;;;1.00;99.90;;;;;;4956742;28;20190;-92
2020/12/28 01:57:01;;;;;;;15.83;9.23;;;3.20;99.90;;;;;;4940438;28;20244;-92
2020/12/28 01:59:27;;;;;;;16.83;9.70;;;2.40;99.90;;;;;;4956674;28;20571;-92
2020/12/28 02:01:54;;;;;;;17.57;9.70;;;2.00;99.90;;;;;;4956869;28;20218;-93
2020/12/28 02:04:21;;;;;;;15.67;9.63;;;1.30;99.90;;;;;;4973566;28;20222;-93
2020/12/28 02:06:47;;;;;;;17.77;9.80;;;1.40;99.90;;;;;;4956748;28;20226;-92
2020/12/28 02:09:14;;;;;;;19.83;10.37;;;1.70;99.90;;;;;;4973172;28;20787;-94
2020/12/28 02:11:40;;;;;;;18.60;10.60;;;2.80;99.90;;;;;;4974436;28;20274;-93
2020/12/28 02:14:06;;;;;;;17.90;10.27;;;;;;;;;;4973907;28;20185;-94
2020/12/28 02:16:32;;;;;;;16.67;9.83;;;1.30;99.90;;;;;;4956967;28;20198;-94
2020/12/28 02:18:59;;;;;;;22.60;10.10;;;3.10;99.90;;;;;;4957099;28;20191;-94
2020/12/28 02:21:25;;;;;;;18.60;10.03;;;3.10;99.90;;;;;;4973564;28;20278;-93
2020/12/28 02:23:51;;;;;;;17.37;10.87;;;3.40;99.90;;;;;;4957876;28;20187;-94
2020/12/28 02:26:17;;;;;;;21.83;10.20;;;2.00;99.90;;;;;;4926149;28;20233;-94
2020/12/28 02:28:43;;;;;;;17.60;10.50;;;;;;;;;;4957437;28;20190;-93
2020/12/28 02:31:08;;;;;;;21.30;11.30;;;1.30;99.90;;;;;;4973647;28;20205;-93
2020/12/28 02:33:34;;;;;;;18.57;10.33;;;;;;;;;;4940875;28;20192;-94
2020/12/28 02:36:00;;;;;;;18.37;10.00;;;1.30;99.90;;;;;;4940698;28;20183;-94
2020/12/28 02:38:26;;;;;;;17.67;9.33;;;2.00;99.90;;;;;;4973855;28;20668;-94
2020/12/28 02:40:51;;;;;;;19.23;10.83;;;1.20;99.90;;;;;;4956478;28;20657;-93
2020/12/28 02:43:17;;;;;;;17.67;10.07;;;2.30;99.90;;;;;;4940953;28;20237;-93
2020/12/28 02:45:43;;;;;;;15.37;9.33;;;;;;;;;;4956628;28;20210;-92
2020/12/28 02:48:09;;;;;;;21.83;10.50;;;1.40;99.90;;;;;;4956956;28;20193;-94
2020/12/28 02:50:34;;;;;;;18.43;10.43;;;1.90;99.90;;;;;;4941058;28;20249;-93
2020/12/28 02:53:00;;;;;;;18.73;10.20;;;;;;;;;;4956035;28;20237;-94
2020/12/28 02:55:26;;;;;;;19.03;10.10;;;1.40;99.90;;;;;;4956398;28;20213;-95
2020/12/28 02:57:51;;;;;;;18.07;11.07;;;3.00;99.90;;;;;;4940102;28;20178;-94
2020/12/28 03:00:17;;;;;;;20.17;10.83;;;1.40;99.90;;;;;;4956030;28;20241;-93
2020/12/28 03:02:43;;;;;;;21.47;11.07;;;3.80;99.90;;;;;;4924578;28;20205;-93
2020/12/28 03:05:08;;;;;;;18.77;10.60;;;1.90;99.90;;;;;;4940067;28;20234;-94
2020/12/28 03:07:34;;;;;;;19.30;11.23;;;1.50;99.90;;;;;;4956283;28;20719;-93
2020/12/28 03:10:00;;;;;;;17.60;11.00;;;2.70;99.90;;;;;;4973014;28;20217;-94
2020/12/28 03:12:26;;;;;;;18.77;10.20;;;3.30;99.90;;;;;;4955951;28;20187;-95
2020/12/28 03:14:51;;;;;;;18.90;10.83;;;2.00;99.90;;;;;;4975948;28;20190;-95
2020/12/28 03:17:17;;;;;;;21.83;10.97;;;2.60;99.90;;;;;;4963563;28;20686;-96
2020/12/28 03:19:43;;;;;;;16.53;9.27;;;;;;;;;;4963707;28;20190;-95
2020/12/28 03:22:09;;;;;;;20.63;12.13;;;;;;;;;;4981826;28;20178;-95
2020/12/28 03:24:35;;;;;;;27.57;12.43;;;1.50;99.90;;;;;;4979996;28;20191;-95
2020/12/28 03:27:04;;;;;;;20.83;11.27;;;;;;;;;;4962640;28;20549;-95
2020/12/28 03:29:30;;;;;;;20.43;12.37;;;;;;;;;;4948125;28;20244;-96
2020/12/28 03:31:56;;;;;;;19.90;11.20;;;;;;;;;;4944606;28;20262;-94
2020/12/28 03:34:22;;;;;;;21.57;11.27;;;1.60;99.90;;;;;;4962543;28;20185;-94
2020/12/28 03:36:48;;;;;;;19.60;11.27;;;1.70;99.90;;;;;;4935360;28;20186;-92
2020/12/28 03:39:14;;;;;;;20.67;11.47;;;3.00;99.90;;;;;;4944513;28;20610;-95
2020/12/28 03:41:39;;;;;;;18.63;10.73;;;1.60;99.90;;;;;;4960570;28;20212;-96
2020/12/28 03:44:05;;;;;;;20.93;11.43;;;1.70;99.90;;;;;;4961309;28;20189;-95
2020/12/28 03:46:31;;;;;;;19.97;10.80;;;3.60;99.90;;;;;;4962257;28;20325;-95
2020/12/28 03:48:56;;;;;;;19.27;10.83;;;1.20;99.90;;;;;;4961650;28;20293;-94
2020/12/28 03:51:22;;;;;;;19.37;11.00;;;1.50;99.90;;;;;;4943701;28;20229;-93
2020/12/28 03:53:47;;;;;;;16.47;9.33;;;1.70;99.90;;;;;;4976410;28;20178;-93
2020/12/28 03:56:15;;;;;;;19.37;10.43;;;2.30;99.90;;;;;;4943259;28;20674;-95
2020/12/28 03:58:41;;;;;;;19.10;10.97;;;2.20;99.90;;;;;;4945039;28;20189;-94
2020/12/28 04:01:07;;;;;;;19.73;10.90;;;2.80;99.90;;;;;;4953901;28;20246;-95
2020/12/28 04:03:32;;;;;;;19.33;11.47;;;2.80;99.90;;;;;;4993254;28;20178;-93
2020/12/28 04:06:01;;;;;;;28.57;11.97;;;3.70;99.90;;;;;;4955978;28;20237;-93
2020/12/28 04:08:27;;;;;;;23.23;12.87;;;;;;;;;;4994523;28;20256;-94
2020/12/28 04:10:53;;;;;;;27.13;13.77;;;1.60;99.90;;;;;;4982344;28;20225;-93
2020/12/28 04:13:19;;;;;;;27.77;13.60;;;1.60;99.90;;;;;;4984051;28;20175;-93
2020/12/28 04:15:45;;;;;;;23.83;13.10;;;1.60;99.90;;;;;;4966865;28;20174;-90
2020/12/28 04:18:10;;;;;;;24.63;12.70;;;3.20;99.90;;;;;;4964334;28;20202;-88
2020/12/28 04:20:36;;;;;;;21.43;11.00;;;3.80;99.90;;;;;;4967321;28;20194;-94
2020/12/28 04:23:02;;;;;;;20.83;11.07;;;2.40;99.90;;;;;;4989418;28;20194;-94
2020/12/28 04:25:27;;;;;;;21.50;11.90;;;1.60;99.90;;;;;;4992466;28;20181;-95
2020/12/28 04:27:53;;;;;;;21.50;11.83;;;2.60;99.90;;;;;;4954235;28;20207;-93
2020/12/28 04:30:18;;;;;;;18.80;11.03;;;1.80;99.90;;;;;;4988653;28;20713;-94
2020/12/28 04:32:44;;;;;;;18.60;11.17;;;1.90;99.90;;;;;;4963224;28;20174;-92
2020/12/28 04:35:10;;;;;;;20.30;10.97;;;1.80;99.90;;;;;;4983232;28;20182;-92
2020/12/28 04:37:35;;;;;;;23.17;11.60;;;1.80;99.90;;;;;;4968295;28;20187;-94
2020/12/28 04:40:01;;;;;;;20.70;10.77;;;;;;;;;;4959343;28;20585;-92
2020/12/28 04:42:28;;;;;;;19.87;11.40;;;1.80;99.90;;;;;;4959622;28;20179;-94
2020/12/28 04:44:54;;;;;;;19.27;10.20;;;2.30;99.90;;;;;;4958673;28;20183;-93
2020/12/28 04:47:20;;;;;;;20.47;12.87;;;1.90;99.90;;;;;;4976832;28;20182;-96
2020/12/28 04:49:46;;;;;;;20.47;11.10;;;3.20;99.90;;;;;;4959061;28;20220;-94
2020/12/28 04:52:13;;;;;;;22.63;11.73;;;1.90;99.90;;;;;;4942866;28;20191;-94
2020/12/28 04:54:40;;;;;;;19.90;11.30;;;1.90;99.90;;;;;;4961101;28;20648;-95
2020/12/28 04:57:07;;;;;;;16.93;10.47;;;2.00;99.90;;;;;;4959262;28;20265;-94
2020/12/28 04:59:32;;;;;;;17.60;10.43;;;2.70;99.90;;;;;;4962408;28;20209;-94
2020/12/28 05:01:58;;;;;;;17.93;10.13;;;;;;;;;;4949325;28;20715;-94
2020/12/28 05:04:25;;;;;;;22.20;12.00;;;2.00;99.90;;;;;;4989013;28;20294;-92
2020/12/28 05:06:58;;;;;;;26.63;12.63;;;3.40;99.90;;;;;;4991868;28;20178;-92
2020/12/28 05:09:24;;;;;;;21.93;12.37;;;1.90;99.90;;;;;;4982979;28;20697;-95
2020/12/28 05:11:54;;;;;;;18.67;10.60;;;2.70;99.90;;;;;;4976841;28;20187;-94
2020/12/28 05:14:20;;;;;;;17.43;10.17;;;2.00;99.90;;;;;;4960240;28;20277;-94
2020/12/28 05:16:47;;;;;;;19.43;10.83;;;3.00;99.90;;;;;;4942403;28;20679;-94
2020/12/28 05:19:12;;;;;;;20.93;10.57;;;3.30;99.90;;;;;;4974873;28;20257;-94
2020/12/28 05:21:38;;;;;;;18.27;11.10;;;2.40;99.90;;;;;;4958818;28;20190;-95
2020/12/28 05:24:14;;;;;;;15.70;9.37;;;2.20;99.90;;;;;;4959124;28;20182;-95
2020/12/28 05:26:42;;;;;;;18.63;10.23;;;3.30;99.90;;;;;;4958994;28;20176;-95
2020/12/28 05:29:15;;;;;;;19.33;10.30;;;2.00;99.90;;;;;;4941793;28;20317;-94
2020/12/28 05:31:43;;;;;;;17.80;10.27;;;2.10;99.90;;;;;;4976261;28;20189;-95
2020/12/28 05:34:13;;;;;;;18.90;9.83;;;2.10;99.90;;;;;;4958249;28;20186;-95
2020/12/28 05:36:40;;;;;;;20.27;11.23;;;;;;;;;;4958629;28;20210;-94
2020/12/28 05:39:05;;;;;;;24.30;11.63;;;2.10;99.90;;;;;;4957412;28;20191;-94
2020/12/28 05:41:31;;;;;;;18.20;10.37;;;2.10;99.90;;;;;;4941511;28;20214;-95
2020/12/28 05:44:08;;;;;;;18.33;11.00;;;2.80;99.90;;;;;;4957917;28;20232;-94
2020/12/28 05:46:33;;;;;;;18.47;9.97;;;2.10;99.90;;;;;;4974928;28;20651;-95
2020/12/28 05:49:03;;;;;;;18.37;10.17;;;2.40;99.90;;;;;;4925121;28;20329;-95
2020/12/28 05:51:32;;;;;;;18.87;9.43;;;2.10;99.90;;;;;;4975403;28;20189;-93
2020/12/28 05:54:03;;;;;;;19.60;11.00;;;2.20;99.90;;;;;;4942261;28;20217;-95
2020/12/28 05:56:29;;;;;;;19.67;10.63;;;2.00;99.90;;;;;;4944848;28;20281;-95
2020/12/28 05:58:55;;;;;;;31.30;14.30;;;;;;;;;;4957302;28;20665;-92
2020/12/28 06:01:21;;;;;;;26.87;12.87;;;2.20;99.90;;;;;;4957506;28;20195;-93
2020/12/28 06:03:48;;;;;;;19.77;10.30;;;4.80;99.90;;;;;;4974447;28;20616;-96
2020/12/28 06:06:15;;;;;;;18.30;10.83;;;3.20;99.90;;;;;;4957380;28;20191;-94
2020/12/28 06:08:44;;;;;;;24.73;11.50;;;3.70;99.90;;;;;;4957451;28;20193;-94
2020/12/28 06:11:10;;;;;;;22.43;12.60;;;2.70;99.90;;;;;;4957174;28;20194;-94
2020/12/28 06:13:43;;;;;;;15.73;9.80;;;2.40;99.90;;;;;;4925651;28;20188;-95
2020/12/28 06:16:09;;;;;;;18.93;11.43;;;;;;;;;;4973806;28;20186;-93
2020/12/28 06:18:34;;;;;;;16.50;10.17;;;2.40;99.90;;;;;;4956652;28;20285;-93
2020/12/28 06:21:12;;;;;;;18.43;10.37;;;3.90;99.90;;;;;;4941144;28;20675;-95
2020/12/28 06:23:38;;;;;;;17.73;9.97;;;2.50;99.90;;;;;;4977014;28;20162;-95
2020/12/28 06:26:04;;;;;;;15.70;10.10;;;2.70;99.90;;;;;;4925621;28;20232;-95
2020/12/28 06:28:30;;;;;;;17.53;10.20;;;2.40;99.90;;;;;;4941392;28;20644;-96
2020/12/28 06:31:09;;;;;;;16.87;9.30;;;2.50;99.90;;;;;;4975274;28;20261;-94
2020/12/28 06:33:35;;;;;;;16.53;10.87;;;2.50;99.90;;;;;;4957956;28;20197;-92
2020/12/28 06:36:00;;;;;;;16.27;9.27;;;3.00;99.90;;;;;;4956882;28;20850;-95
2020/12/28 06:38:26;;;;;;;20.03;10.27;;;3.30;99.90;;;;;;4943991;28;20198;-94
2020/12/28 06:40:52;;;;;;;17.17;9.33;;;3.40;99.90;;;;;;4983583;28;20277;-94
2020/12/28 06:43:38;;;;;;;15.13;8.97;;;2.30;99.90;;;;;;4965083;28;20188;-95
2020/12/28 06:46:04;;;;;;;15.03;9.33;;;2.50;99.90;;;;;;4982313;28;20197;-94
2020/12/28 06:48:29;;;;;;;19.00;9.37;;;2.50;99.90;;;;;;4968761;28;20191;-93
2020/12/28 06:50:55;;;;;;;16.13;9.57;;;4.10;99.90;;;;;;4951641;28;20682;-96
2020/12/28 06:53:22;;;;;;;15.50;8.87;;;2.50;99.90;;;;;;4987047;28;20194;-95
2020/12/28 06:55:48;;;;;;;13.20;7.87;;;2.50;99.90;;;;;;4987376;28;20183;-94
2020/12/28 06:58:15;;;;;;;16.80;9.23;;;2.50;99.90;;;;;;4987832;28;20640;-94
2020/12/28 07:00:40;;;;;;;17.50;9.97;;;2.50;99.90;;;;;;4974965;28;20190;-94
2020/12/28 07:03:14;;;;;;;19.97;11.07;;;2.50;99.90;;;;;;4977913;28;20320;-93
2020/12/28 07:05:41;;;;;;;20.53;11.03;;;;;;;;;;4985950;28;20275;-96
2020/12/28 07:08:06;;;;;;;17.93;9.67;;;2.50;99.90;;;;;;4988620;28;20247;-92
2020/12/28 07:10:32;;;;;;;16.70;9.80;;;2.60;99.90;;;;;;4969574;28;20663;-95
2020/12/28 07:13:02;;;;;;;18.70;10.37;;;4.10;99.90;;;;;;4954863;28;20658;-94
2020/12/28 07:15:28;;;;;;;21.20;13.33;;;4.70;99.90;;;;;;4987995;28;20675;-93
2020/12/28 07:17:53;;;;;;;20.93;10.93;;;2.60;99.90;;;;;;4953356;28;20222;-95
2020/12/28 07:20:19;;;;;;;20.27;11.23;;;;;;;;;;4997415;28;20202;-93
2020/12/28 07:22:45;;;;;;;19.33;10.80;;;2.60;99.90;;;;;;4997478;28;20190;-93
2020/12/28 07:25:12;;;;;;;20.93;12.60;;;2.60;99.90;;;;;;4966471;28;20197;-92
2020/12/28 07:27:42;;;;;;;18.47;9.93;;;2.70;99.90;;;;;;4998319;28;20627;-94
2020/12/28 07:30:12;;;;;;;29.60;13.63;;;2.80;99.90;;;;;;4965363;28;20239;-95
2020/12/28 07:32:39;;;;;;;27.43;13.57;;;2.60;99.90;;;;;;4980100;28;20185;-93
2020/12/28 07:35:07;;;;;;;18.00;9.87;;;2.80;99.90;;;;;;4979982;28;20274;-95
2020/12/28 07:37:33;;;;;;;18.27;10.97;;;;;;;;;;4997450;28;20180;-92
2020/12/28 07:39:59;;;;;;;17.63;10.10;;;2.80;99.90;;;;;;4996049;28;20215;-92
2020/12/28 07:42:26;;;;;;;13.83;8.33;;;3.50;99.90;;;;;;4975166;28;20221;-92
2020/12/28 07:44:57;;;;;;;13.87;8.33;;;4.80;99.90;;;;;;4969863;28;20184;-91
2020/12/28 07:47:56;;;;;;;13.97;8.43;;;4.90;99.90;;;;;;4970527;28;20212;-91
2020/12/28 07:50:24;;;;;;;13.43;8.37;;;5.10;99.90;;;;;;4993107;28;20209;-91
2020/12/28 07:52:55;;;;;;;14.30;7.90;;;5.60;99.90;;;;;;4944517;28;20568;-92
2020/12/28 07:55:23;;;;;;;14.67;7.93;;;5.20;99.90;;;;;;4973510;28;20442;-91
2020/12/28 07:58:07;;;;;;;9.93;6.80;;;4.60;99.90;;;;;;4981896;28;20203;-90
2020/12/28 08:00:46;;;;;;;16.67;7.73;;;4.00;99.90;;;;;;4994059;28;20191;-88
2020/12/28 08:03:27;;;;;;;11.83;8.27;;;3.70;99.90;;;;;;4988547;28;20181;-91
2020/12/28 08:05:56;;;;;;;11.03;7.10;;;3.50;99.90;;;;;;5003598;28;20238;-94
2020/12/28 08:08:26;;;;;;;15.80;8.97;;;4.40;99.90;;;;;;4973271;28;20185;-93
2020/12/28 08:10:57;;;;;;;16.23;8.80;;;3.30;99.90;;;;;;4990633;28;20217;-92
2020/12/28 08:13:31;;;;;;;14.63;8.63;;;3.40;99.90;;;;;;4975218;28;20218;-92
2020/12/28 08:16:14;;;;;;;15.63;9.53;;;3.10;99.90;;;;;;4975258;28;20196;-94
2020/12/28 08:18:52;;;;;;;17.27;9.93;;;3.20;99.90;;;;;;4974454;28;20241;-92
2020/12/28 08:21:19;;;;;;;13.50;9.00;;;3.10;99.90;;;;;;4974311;28;20184;-93
2020/12/28 08:24:01;;;;;;;16.50;10.10;;;3.20;99.90;;;;;;4974463;28;20669;-88
2020/12/28 08:26:28;;;;;;;14.07;9.03;;;3.20;99.90;;;;;;4974412;28;20241;-90
2020/12/28 08:28:59;;;;;;;18.13;10.37;;;3.20;99.90;;;;;;4974184;28;20190;-92
2020/12/28 08:31:35;;;;;;;13.43;8.50;;;3.20;99.90;;;;;;4989238;28;20660;-90
2020/12/28 08:34:01;;;;;;;17.50;9.37;;;3.20;99.90;;;;;;4973379;28;20216;-91
2020/12/28 08:36:27;;;;;;;14.07;9.20;;;3.40;99.90;;;;;;4972492;28;20697;-91
2020/12/28 08:38:52;;;;;;;14.13;9.40;;;3.30;99.90;;;;;;4989489;28;20184;-92
2020/12/28 08:41:18;;;;;;;17.17;9.67;;;3.30;99.90;;;;;;4940484;28;20590;-91
2020/12/28 08:43:47;;;;;;;20.57;12.43;;;3.30;99.90;;;;;;4974744;28;20221;-93
2020/12/28 08:46:14;;;;;;;17.50;9.53;;;3.20;99.90;;;;;;4980630;28;20203;-95
2020/12/28 08:48:47;;;;;;;18.67;11.23;;;3.70;99.90;;;;;;4980858;28;20210;-94
2020/12/28 08:51:17;;;;;;;17.77;11.87;;;4.20;99.90;;;;;;4991091;28;20644;-92
2020/12/28 08:53:50;;;;;;;15.67;10.27;;;3.30;99.90;;;;;;4995893;28;20190;-93
2020/12/28 08:56:17;;;;;;;21.43;12.97;;;3.30;99.90;;;;;;4993396;28;20213;-93
2020/12/28 08:58:43;;;;;;;22.23;13.00;;;3.40;99.90;;;;;;5008408;28;20714;-91
2020/12/28 09:01:08;;;;;;;16.30;10.83;;;3.40;99.90;;;;;;4975285;28;20185;-91
2020/12/28 09:03:38;;;;;;;22.43;12.30;;;3.50;99.90;;;;;;4992531;28;20644;-93
2020/12/28 09:06:04;;;;;;;23.03;11.27;;;4.20;99.90;;;;;;4992946;28;20210;-92
2020/12/28 09:08:30;;;;;;;17.67;9.60;;;3.60;99.90;;;;;;4993548;28;20528;-90
2020/12/28 09:10:56;;;;;;;17.17;8.70;;;4.30;99.90;;;;;;4987669;28;20245;-92
2020/12/28 09:13:22;;;;;;;15.83;8.90;;;5.50;99.90;;;;;;4981600;28;20213;-93
2020/12/28 09:15:47;;;;;;;19.10;12.10;;;3.60;99.90;;;;;;5000430;28;20183;-91
2020/12/28 09:18:13;;;;;;;22.57;12.23;;;3.50;99.90;;;;;;4987986;28;20166;-94
2020/12/28 09:20:38;;;;;;;23.07;12.40;;;3.60;99.90;;;;;;4984976;28;20177;-94
2020/12/28 09:23:04;;;;;;;25.10;11.80;;;3.60;99.90;;;;;;4976633;28;20190;-94
2020/12/28 09:25:30;;;;;;;17.47;9.83;;;3.60;99.90;;;;;;4990984;28;20175;-93
2020/12/28 09:27:55;;;;;;;17.40;9.73;;;3.60;99.90;;;;;;4989188;28;20183;-94
2020/12/28 09:30:21;;;;;;;15.03;9.47;;;3.80;99.90;;;;;;5017483;23;20219;-88
2020/12/28 09:32:47;;;;;;;16.37;10.47;;;3.60;99.90;;;;;;4995660;28;20240;-94
2020/12/28 09:35:13;;;;;;;17.97;10.57;;;3.60;99.90;;;;;;4975321;28;20217;-94
2020/12/28 09:37:38;;;;;;;19.57;11.47;;;3.30;99.90;;;;;;4984110;28;20593;-94
2020/12/28 09:40:05;;;;;;;18.90;11.57;;;4.90;99.90;;;;;;4981593;28;20186;-91
2020/12/28 09:42:30;;;;;;;23.77;11.27;;;3.80;99.90;;;;;;4975526;28;20641;-94
2020/12/28 09:45:04;;;;;;;16.23;10.10;;;3.80;99.90;;;;;;4980695;28;20190;-95
2020/12/28 09:47:30;;;;;;;18.40;9.97;;;4.10;99.90;;;;;;4964890;28;20556;-95
2020/12/28 09:49:55;;;;;;;16.60;9.60;;;4.00;99.90;;;;;;4979204;28;20211;-96
2020/12/28 09:52:21;;;;;;;18.77;10.63;;;4.30;99.90;;;;;;4977685;28;20184;-94
2020/12/28 09:54:47;;;;;;;20.00;11.37;;;4.80;99.90;;;;;;4958666;28;20643;-96
2020/12/28 09:57:13;;;;;;;15.83;10.43;;;3.30;99.90;;;;;;4962844;28;20213;-95
2020/12/28 09:59:39;;;;;;;18.73;11.43;;;4.10;99.90;;;;;;4958418;28;21442;-92
2020/12/28 10:02:06;;;;;;;16.67;10.37;;;4.20;99.90;;;;;;4957360;28;20201;-91
2020/12/28 10:04:32;;;;;;;16.83;11.27;;;4.10;99.90;;;;;;4982273;28;20219;-94
2020/12/28 10:06:58;;;;;;;29.60;17.00;;;4.30;99.90;;;;;;4975369;28;20653;-93
2020/12/28 10:09:24;;;;;;;22.63;12.43;;;4.30;99.90;;;;;;4956734;28;20244;-94
2020/12/28 10:11:50;;;;;;;16.17;10.93;;;4.30;99.90;;;;;;4975960;28;20189;-90
2020/12/28 10:14:15;;;;;;;17.30;10.67;;;4.40;99.90;;;;;;4978691;28;20343;-95
2020/12/28 10:16:42;;;;;;;15.57;10.00;;;4.40;99.90;;;;;;4977984;28;20196;-96
2020/12/28 10:19:08;;;;;;;21.60;12.67;;;4.40;99.90;;;;;;4979380;28;20277;-95
2020/12/28 10:21:34;;;;;;;25.43;14.07;;;4.50;99.90;;;;;;4976155;28;20203;-93
2020/12/28 10:23:59;;;;;;;20.47;12.10;;;4.60;99.90;;;;;;4982408;28;20178;-94
2020/12/28 10:26:27;;;;;;;22.97;12.40;;;4.80;99.90;;;;;;4962146;28;20300;-94
2020/12/28 10:28:54;;;;;;;23.93;13.50;;;4.90;99.90;;;;;;4976633;28;20218;-95
2020/12/28 10:31:23;;;;;;;24.13;12.40;;;4.90;99.90;;;;;;4974664;28;20233;-95
2020/12/28 10:33:49;;;;;;;19.60;11.23;;;5.00;99.90;;;;;;4959111;28;20196;-92
2020/12/28 10:36:17;;;;;;;22.87;11.20;;;5.10;99.90;;;;;;4978595;28;20627;-88
2020/12/28 10:38:44;;;;;;;15.53;10.13;;;5.20;99.90;;;;;;4987481;28;20181;-92
2020/12/28 10:41:10;;;;;;;15.37;9.80;;;5.20;99.90;;;;;;4990727;28;20183;-92
2020/12/28 10:43:36;;;;;;;16.27;9.77;;;5.10;99.90;;;;;;4973897;28;20191;-92
2020/12/28 10:46:04;;;;;;;18.00;10.73;;;5.10;99.90;;;;;;4990056;28;20200;-90
2020/12/28 10:48:30;;;;;;;17.10;9.27;;;5.10;99.90;;;;;;4977472;28;20200;-89
2020/12/28 10:50:55;;;;;;;20.27;10.30;;;5.10;99.90;;;;;;4996597;28;20233;-91
2020/12/28 10:53:21;;;;;;;18.40;10.60;;;5.10;99.90;;;;;;4996297;28;20174;-88
2020/12/28 10:55:47;;;;;;;16.97;9.80;;;5.10;99.90;;;;;;4977573;28;20210;-90
2020/12/28 10:58:13;;;;;;;16.10;9.57;;;5.20;99.90;;;;;;4980541;28;20194;-90
2020/12/28 11:00:40;;;;;;;19.30;10.70;;;5.20;99.90;;;;;;4972405;28;20198;-89
2020/12/28 11:03:06;;;;;;;15.27;8.43;;;5.20;99.90;;;;;;4994248;28;20170;-92
2020/12/28 11:05:32;;;;;;;14.90;9.60;;;5.20;99.90;;;;;;4979645;28;20201;-91
2020/12/28 11:07:57;;;;;;;15.40;9.60;;;5.40;99.90;;;;;;4996219;28;20163;-91
2020/12/28 11:10:23;;;;;;;15.23;9.17;;;5.40;99.90;;;;;;4981855;28;20741;-94
2020/12/28 11:12:48;;;;;;;17.20;9.77;;;5.90;99.90;;;;;;4972870;28;20272;-94
2020/12/28 11:15:14;;;;;;;13.13;8.43;;;5.60;99.90;;;;;;4956906;28;20208;-93
2020/12/28 11:17:40;;;;;;;16.10;9.37;;;5.70;99.90;;;;;;4972536;28;20210;-91
2020/12/28 11:20:05;;;;;;;10.80;7.60;;;5.80;99.90;;;;;;4970599;28;20202;-93
2020/12/28 11:22:31;;;;;;;16.17;8.83;;;5.80;99.90;;;;;;4955619;28;20190;-91
2020/12/28 11:24:57;;;;;;;15.63;8.87;;;5.70;99.90;;;;;;4971335;28;20183;-91
2020/12/28 11:27:22;;;;;;;14.73;9.17;;;5.50;99.90;;;;;;4974907;28;20209;-95
2020/12/28 11:29:48;;;;;;;17.03;9.17;;;5.50;99.90;;;;;;4972958;28;20214;-91
2020/12/28 11:32:14;;;;;;;14.77;8.83;;;5.50;99.90;;;;;;4972800;28;20238;-92
2020/12/28 11:34:39;;;;;;;16.30;9.33;;;5.40;99.90;;;;;;4973702;28;20189;-95
2020/12/28 11:37:06;;;;;;;13.40;8.70;;;5.70;99.90;;;;;;4956853;28;20225;-94
2020/12/28 11:39:32;;;;;;;18.67;10.60;;;5.30;99.90;;;;;;4974740;28;20186;-94
2020/12/28 11:41:57;;;;;;;16.00;8.87;;;5.20;99.90;;;;;;4973847;28;20212;-92
2020/12/28 11:44:23;;;;;;;13.20;8.23;;;5.10;99.90;;;;;;4975132;28;20217;-94
2020/12/28 11:46:53;;;;;;;12.17;8.33;;;5.30;99.90;;;;;;4975526;28;20193;-94
2020/12/28 11:49:18;;;;;;;13.23;7.93;;;5.30;99.90;;;;;;4974842;28;20270;-95
2020/12/28 11:51:44;;;;;;;12.63;8.07;;;5.30;99.90;;;;;;4974870;28;20187;-92
2020/12/28 11:54:10;;;;;;;11.77;7.97;;;5.00;99.90;;;;;;4973911;28;20236;-93
2020/12/28 11:56:36;;;;;;;20.17;10.77;;;5.00;99.90;;;;;;4976287;28;20197;-95
2020/12/28 11:59:02;;;;;;;17.90;11.87;;;5.00;99.90;;;;;;4977786;28;20187;-93
2020/12/28 12:01:28;;;;;;;22.00;14.07;;;5.00;99.90;;;;;;4977290;28;20189;-96
2020/12/28 12:03:54;;;;;;;17.40;11.03;;;5.00;99.90;;;;;;4962195;28;20190;-95
2020/12/28 12:06:21;;;;;;;16.40;9.97;;;5.00;99.90;;;;;;4978699;28;20256;-95
2020/12/28 12:11:32;;;;;;;12.90;8.23;;;5.00;99.90;;;;;;4976188;28;20216;-95
2020/12/28 12:13:58;;;;;;;13.87;8.50;;;5.00;99.90;;;;;;4980387;28;20276;-95
2020/12/28 12:16:25;;;;;;;12.47;8.47;;;6.20;99.90;;;;;;4981039;28;20206;-95
2020/12/28 12:18:51;;;;;;;17.00;9.07;;;4.90;99.90;;;;;;4962608;28;20248;-92
2020/12/28 12:21:20;;;;;;;16.47;8.87;;;5.20;99.90;;;;;;4981367;28;20185;-94
2020/12/28 12:23:46;;;;;;;18.77;10.60;;;5.00;99.90;;;;;;4958902;28;20189;-93
2020/12/28 12:26:12;;;;;;;19.73;11.37;;;6.70;99.90;;;;;;4976177;28;20723;-94
2020/12/28 12:28:38;;;;;;;17.97;10.73;;;5.10;99.90;;;;;;4976020;28;20577;-94
2020/12/28 12:31:04;;;;;;;23.63;12.10;;;7.40;99.90;;;;;;4945203;28;20257;-91
2020/12/28 12:33:30;;;;;;;17.60;10.47;;;5.80;99.90;;;;;;4975078;28;20245;-91
2020/12/28 12:35:56;;;;;;;15.27;9.17;;;7.50;99.90;;;;;;4976163;28;20192;-92
2020/12/28 12:38:21;;;;;;;10.97;7.87;;;6.80;99.90;;;;;;4975043;28;20181;-94
2020/12/28 12:40:47;;;;;;;13.07;7.73;;;7.10;99.90;;;;;;4974754;28;20216;-94
2020/12/28 12:43:13;;;;;;;16.27;9.80;;;7.20;99.90;;;;;;4974754;28;20190;-94
2020/12/28 12:45:38;;;;;;;16.90;9.93;;;7.20;99.90;;;;;;4974794;28;20191;-95
2020/12/28 12:48:04;;;;;;;12.83;7.70;;;7.30;99.90;;;;;;4975161;28;20669;-93
2020/12/28 12:50:30;;;;;;;15.40;8.40;;;7.40;99.90;;;;;;4976835;28;20233;-92